createdAt,value
2017-09-05T00:02:01.226Z,7.37
2017-09-05T00:04:32.315Z,7.60
2017-09-05T00:07:02.104Z,11.00
2017-09-05T00:09:50.956Z,9.77
2017-09-05T00:12:29.186Z,10.30
2017-09-05T00:15:07.112Z,7.57
2017-09-05T00:17:38.417Z,9.63
2017-09-05T00:20:07.882Z,9.90
2017-09-05T00:22:38.294Z,10.03
2017-09-05T00:25:07.793Z,10.00
2017-09-05T00:27:50.675Z,7.20
2017-09-05T00:30:20.110Z,12.53
2017-09-05T00:32:49.536Z,10.00
2017-09-05T00:35:18.977Z,11.10
2017-09-05T00:38:02.703Z,9.90
2017-09-05T00:40:32.166Z,11.30
2017-09-05T00:43:01.653Z,10.53
2017-09-05T00:45:37.156Z,8.73
2017-09-05T00:48:06.594Z,8.53
2017-09-05T00:50:48.928Z,9.60
2017-09-05T00:53:18.402Z,11.20
2017-09-05T00:56:00.513Z,10.20
2017-09-05T00:58:44.709Z,10.50
2017-09-05T01:01:26.299Z,6.30
2017-09-05T01:04:01.749Z,7.40
2017-09-05T01:06:31.197Z,9.87
2017-09-05T01:09:16.503Z,14.23
2017-09-05T01:11:45.947Z,10.93
2017-09-05T01:14:18.980Z,17.33
2017-09-05T01:16:55.902Z,16.10
2017-09-05T01:19:39.190Z,11.67
2017-09-05T01:22:19.786Z,8.57
2017-09-05T01:24:55.899Z,11.20
2017-09-05T01:27:25.561Z,10.27
2017-09-05T01:29:55.006Z,12.77
2017-09-05T01:32:24.681Z,13.40
2017-09-05T01:35:07.359Z,10.93
2017-09-05T01:37:50.059Z,8.03
2017-09-05T01:40:19.503Z,10.27
2017-09-05T01:42:48.907Z,9.43
2017-09-05T01:45:18.486Z,12.03
2017-09-05T01:47:47.938Z,9.13
2017-09-05T01:50:17.366Z,9.80
2017-09-05T01:52:47.037Z,7.33
2017-09-05T01:55:17.467Z,9.10
2017-09-05T01:57:46.861Z,13.73
2017-09-05T02:00:16.240Z,9.50
2017-09-05T02:02:45.812Z,10.73
2017-09-05T02:05:15.402Z,9.57
2017-09-05T02:07:44.984Z,8.10
2017-09-05T02:10:14.394Z,8.57
2017-09-05T02:12:43.777Z,8.90
2017-09-05T02:15:40.021Z,8.50
2017-09-05T02:18:09.556Z,6.70
2017-09-05T02:20:46.646Z,11.97
2017-09-05T02:23:16.110Z,9.37
2017-09-05T02:25:45.755Z,9.07
2017-09-05T02:28:22.902Z,8.47
2017-09-05T02:30:52.374Z,9.87
2017-09-05T02:33:22.255Z,11.20
2017-09-05T02:35:51.895Z,10.53
2017-09-05T02:38:21.566Z,9.07
2017-09-05T02:40:57.046Z,10.47
2017-09-05T02:43:26.513Z,9.30
2017-09-05T02:46:10.580Z,11.63
2017-09-05T02:48:40.013Z,7.97
2017-09-05T02:51:09.436Z,8.83
2017-09-05T02:53:39.074Z,8.20
2017-09-05T02:56:08.662Z,9.83
2017-09-05T02:58:51.929Z,10.20
2017-09-05T03:01:21.442Z,12.93
2017-09-05T03:03:56.039Z,9.53
2017-09-05T03:06:25.614Z,15.20
2017-09-05T03:08:55.061Z,10.87
2017-09-05T03:11:39.962Z,17.07
2017-09-05T03:14:10.184Z,8.83
2017-09-05T03:16:39.671Z,18.47
2017-09-05T03:19:10.265Z,11.83
2017-09-05T03:21:52.882Z,16.53
2017-09-05T03:24:22.337Z,11.30
2017-09-05T03:26:51.928Z,13.60
2017-09-05T03:29:21.969Z,9.57
2017-09-05T03:32:04.846Z,10.97
2017-09-05T03:34:34.285Z,13.73
2017-09-05T03:37:16.705Z,10.80
2017-09-05T03:39:46.154Z,11.20
2017-09-05T03:42:15.560Z,13.30
2017-09-05T03:44:58.580Z,10.80
2017-09-05T03:47:28.038Z,20.43
2017-09-05T03:49:57.429Z,13.80
2017-09-05T03:52:26.819Z,7.33
2017-09-05T03:55:02.310Z,15.90
2017-09-05T03:57:31.749Z,22.73
2017-09-05T04:00:07.550Z,18.20
2017-09-05T04:02:44.373Z,15.97
2017-09-05T04:05:27.790Z,22.90
2017-09-05T04:07:57.250Z,46.43
2017-09-05T04:10:29.875Z,56.53
2017-09-05T04:12:59.494Z,36.77
2017-09-05T04:15:28.932Z,25.07
2017-09-05T04:18:11.962Z,39.57
2017-09-05T04:20:41.406Z,58.67
2017-09-05T04:23:19.381Z,60.27
2017-09-05T04:25:55.994Z,66.73
2017-09-05T04:28:25.436Z,163.77
2017-09-05T04:31:00.930Z,172.60
2017-09-05T04:33:30.395Z,141.37
2017-09-05T04:35:59.841Z,167.27
2017-09-05T04:38:35.284Z,144.47
2017-09-05T04:41:06.111Z,147.63
2017-09-05T04:43:35.550Z,66.90
2017-09-05T04:46:04.998Z,111.77
2017-09-05T04:48:34.470Z,104.23
2017-09-05T04:51:03.860Z,178.23
2017-09-05T04:53:33.301Z,161.37
2017-09-05T04:56:02.731Z,195.20
2017-09-05T04:58:32.157Z,247.00
2017-09-05T05:01:01.570Z,287.93
2017-09-05T05:03:30.970Z,191.10
2017-09-05T05:06:00.543Z,204.30
2017-09-05T05:08:42.121Z,187.37
2017-09-05T05:11:17.731Z,416.57
2017-09-05T05:13:47.193Z,384.93
2017-09-05T05:16:16.606Z,399.40
2017-09-05T05:18:46.059Z,277.73
2017-09-05T05:21:15.483Z,254.77
2017-09-05T05:23:58.942Z,234.93
2017-09-05T05:26:28.406Z,173.47
2017-09-05T05:29:03.898Z,190.57
2017-09-05T05:31:41.464Z,257.27
2017-09-05T05:34:30.642Z,329.03
2017-09-05T05:37:08.009Z,475.37
2017-09-05T05:39:44.469Z,450.40
2017-09-05T05:42:21.620Z,392.30
2017-09-05T05:44:51.076Z,349.40
2017-09-05T05:47:20.493Z,391.87
2017-09-05T05:49:49.945Z,458.57
2017-09-05T05:52:30.249Z,549.57
2017-09-05T05:54:59.687Z,477.53
2017-09-05T05:57:29.180Z,495.60
2017-09-05T05:59:58.659Z,432.23
2017-09-05T06:02:46.984Z,441.10
2017-09-05T06:05:16.423Z,375.20
2017-09-05T06:07:45.817Z,476.87
2017-09-05T06:10:21.344Z,311.07
2017-09-05T06:12:56.782Z,343.43
2017-09-05T06:15:26.234Z,472.70
2017-09-05T06:17:55.726Z,467.70
2017-09-05T06:20:25.179Z,410.37
2017-09-05T06:23:09.364Z,421.67
2017-09-05T06:25:38.810Z,450.13
2017-09-05T06:28:08.283Z,378.27
2017-09-05T06:30:37.710Z,343.63
2017-09-05T06:33:20.780Z,433.43
2017-09-05T06:35:50.233Z,462.13
2017-09-05T06:38:32.014Z,412.77
2017-09-05T06:41:04.801Z,454.90
2017-09-05T06:43:34.458Z,580.07
2017-09-05T06:46:18.678Z,393.90
2017-09-05T06:48:48.151Z,290.00
2017-09-05T06:51:17.612Z,184.87
2017-09-05T06:53:54.459Z,134.20
2017-09-05T06:56:31.069Z,43.93
2017-09-05T06:59:00.511Z,47.27
2017-09-05T07:01:47.322Z,37.20
2017-09-05T07:04:17.313Z,32.93
2017-09-05T07:07:01.082Z,35.03
2017-09-05T07:09:36.718Z,40.47
2017-09-05T07:12:06.176Z,25.97
2017-09-05T07:14:42.989Z,17.00
2017-09-05T07:17:31.213Z,21.73
2017-09-05T07:20:07.775Z,22.13
2017-09-05T07:22:37.737Z,21.17
2017-09-05T07:25:07.429Z,31.60
2017-09-05T07:27:48.998Z,25.87
2017-09-05T07:30:18.457Z,21.83
2017-09-05T07:32:47.895Z,16.47
2017-09-05T07:35:27.590Z,16.90
2017-09-05T07:37:56.996Z,11.80
2017-09-05T07:40:26.650Z,19.23
2017-09-05T07:42:56.050Z,20.55
2017-09-05T07:45:28.659Z,307.00
2017-09-05T07:48:02.931Z,33.40
2017-09-05T07:50:32.401Z,85.87
2017-09-05T07:53:15.903Z,40.90
2017-09-05T07:55:45.597Z,62.90
2017-09-05T07:58:19.345Z,82.77
2017-09-05T08:00:56.042Z,11.07
2017-09-05T08:03:25.485Z,18.17
2017-09-05T08:05:55.313Z,17.53
2017-09-05T08:08:24.713Z,21.57
2017-09-05T08:11:16.125Z,28.00
2017-09-05T08:13:53.404Z,19.93
2017-09-05T08:16:22.897Z,32.57
2017-09-05T08:18:52.390Z,108.13
2017-09-05T08:21:22.076Z,29.47
2017-09-05T08:23:51.596Z,62.70
2017-09-05T08:26:21.045Z,39.93
2017-09-05T08:28:50.472Z,13.73
2017-09-05T08:31:19.894Z,15.63
2017-09-05T08:34:02.935Z,266.40
2017-09-05T08:36:33.694Z,49.97
2017-09-05T08:39:03.266Z,41.80
2017-09-05T08:41:34.384Z,770.37
2017-09-05T08:44:07.867Z,13.57
2017-09-05T08:46:37.301Z,60.30
2017-09-05T08:49:06.749Z,9.00
2017-09-05T08:51:53.931Z,16.93
2017-09-05T08:54:23.696Z,20.90
2017-09-05T08:56:53.343Z,144.57
2017-09-05T08:59:22.917Z,33.00
2017-09-05T09:01:52.364Z,12.87
2017-09-05T09:04:22.047Z,42.73
2017-09-05T09:07:07.041Z,39.37
2017-09-05T09:09:36.759Z,31.63
2017-09-05T09:12:07.399Z,247.30
2017-09-05T09:14:37.415Z,50.17
2017-09-05T09:17:13.639Z,28.50
2017-09-05T09:19:43.095Z,28.93
2017-09-05T09:22:25.899Z,16.93
2017-09-05T09:24:55.353Z,16.53
2017-09-05T09:27:24.829Z,16.90
2017-09-05T09:29:54.283Z,42.73
2017-09-05T09:32:31.051Z,21.67
2017-09-05T09:35:00.505Z,16.27
2017-09-05T09:37:45.057Z,8.90
2017-09-05T09:40:14.675Z,17.23
2017-09-05T09:42:44.986Z,17.00
2017-09-05T09:45:16.132Z,22.00
2017-09-05T09:47:52.895Z,21.13
2017-09-05T09:50:22.627Z,14.03
2017-09-05T09:53:04.237Z,23.83
2017-09-05T09:55:34.383Z,13.03
2017-09-05T09:58:03.858Z,16.97
2017-09-05T10:00:33.308Z,24.93
2017-09-05T10:03:15.470Z,33.03
2017-09-05T10:05:57.778Z,16.87
2017-09-05T10:08:34.730Z,11.70
2017-09-05T10:11:04.338Z,31.67
2017-09-05T10:13:34.182Z,11.97
2017-09-05T10:16:12.318Z,12.23
2017-09-05T10:18:54.925Z,20.43
2017-09-05T10:21:31.358Z,10.40
2017-09-05T10:24:01.099Z,12.77
2017-09-05T10:26:38.146Z,8.90
2017-09-05T10:29:19.699Z,14.60
2017-09-05T10:31:49.125Z,19.63
2017-09-05T10:34:19.091Z,14.47
2017-09-05T10:37:02.350Z,12.43
2017-09-05T10:39:31.929Z,12.43
2017-09-05T10:42:02.767Z,9.30
2017-09-05T10:44:45.807Z,12.67
2017-09-05T10:47:16.251Z,9.97
2017-09-05T10:49:51.729Z,9.87
2017-09-05T10:52:21.331Z,17.10
2017-09-05T10:54:50.977Z,10.03
2017-09-05T10:57:20.562Z,13.47
2017-09-05T10:59:50.646Z,17.17
2017-09-05T11:02:20.430Z,14.40
2017-09-05T11:04:50.506Z,20.90
2017-09-05T11:07:19.957Z,10.57
2017-09-05T11:09:49.354Z,7.40
2017-09-05T11:12:27.373Z,12.37
2017-09-05T11:14:56.819Z,19.50
2017-09-05T11:17:26.314Z,22.77
2017-09-05T11:19:55.754Z,9.93
2017-09-05T11:22:39.971Z,12.80
2017-09-05T11:25:23.516Z,16.10
2017-09-05T11:27:52.968Z,13.13
2017-09-05T11:30:24.123Z,11.03
2017-09-05T11:32:56.802Z,16.97
2017-09-05T11:35:30.192Z,10.10
2017-09-05T11:37:59.665Z,15.77
2017-09-05T11:40:29.072Z,13.37
2017-09-05T11:42:58.684Z,11.33
2017-09-05T11:45:41.183Z,17.47
2017-09-05T11:48:16.895Z,10.30
2017-09-05T11:50:46.360Z,12.87
2017-09-05T11:53:16.792Z,11.15
2017-09-05T11:55:46.323Z,8.60
2017-09-05T11:58:15.760Z,12.10
2017-09-05T12:00:51.447Z,9.43
2017-09-05T12:03:33.016Z,15.63
2017-09-05T12:06:02.456Z,14.63
2017-09-05T12:08:31.896Z,7.67
2017-09-05T12:11:01.428Z,15.87
2017-09-05T12:13:52.391Z,9.70
2017-09-05T12:16:22.250Z,7.77
2017-09-05T12:18:57.927Z,8.93
2017-09-05T12:21:27.425Z,18.53
2017-09-05T12:24:04.402Z,9.33
2017-09-05T12:26:33.859Z,13.70
2017-09-05T12:29:03.532Z,9.30
2017-09-05T12:31:35.243Z,9.95
2017-09-05T12:34:04.723Z,14.50
2017-09-05T12:36:48.217Z,6.63
2017-09-05T12:39:17.674Z,17.10
2017-09-05T12:41:53.266Z,7.80
2017-09-05T12:44:22.963Z,16.20
2017-09-05T12:46:52.966Z,12.27
2017-09-05T12:49:36.482Z,13.07
2017-09-05T12:52:05.955Z,7.20
2017-09-05T12:54:35.455Z,8.80
2017-09-05T12:57:04.920Z,6.78
2017-09-05T12:59:35.923Z,15.70
2017-09-05T13:02:05.341Z,16.03
2017-09-05T13:04:36.674Z,8.45
2017-09-05T13:07:12.490Z,8.70
2017-09-05T13:09:42.117Z,10.10
2017-09-05T13:12:11.601Z,10.03
2017-09-05T13:14:41.270Z,27.85
2017-09-05T13:17:26.040Z,12.45
2017-09-05T13:19:55.492Z,10.38
2017-09-05T13:22:24.960Z,13.80
2017-09-05T13:24:55.110Z,11.70
2017-09-05T13:27:24.589Z,6.65
2017-09-05T13:29:54.242Z,9.60
2017-09-05T13:32:32.322Z,9.82
2017-09-05T13:35:01.868Z,13.70
2017-09-05T13:37:31.343Z,9.70
2017-09-05T13:40:00.821Z,6.70
2017-09-05T13:42:33.852Z,14.55
2017-09-05T13:45:03.336Z,16.77
2017-09-05T13:47:45.910Z,10.55
2017-09-05T13:50:15.451Z,14.80
2017-09-05T13:52:44.898Z,42.08
2017-09-05T13:55:14.367Z,22.75
2017-09-05T13:57:54.533Z,8.02
2017-09-05T14:00:30.102Z,19.67
2017-09-05T14:02:59.598Z,4.78
2017-09-05T14:05:29.210Z,9.82
2017-09-05T14:08:06.045Z,35.58
2017-09-05T14:10:35.541Z,5.87
2017-09-05T14:13:05.048Z,6.87
2017-09-05T14:15:34.575Z,12.20
2017-09-05T14:18:04.201Z,15.25
2017-09-05T14:20:33.903Z,6.55
2017-09-05T14:23:17.230Z,7.72
2017-09-05T14:25:46.799Z,5.57
2017-09-05T14:28:16.412Z,6.95
2017-09-05T14:30:46.072Z,6.97
2017-09-05T14:33:15.584Z,9.15
2017-09-05T14:35:45.786Z,6.10
2017-09-05T14:38:15.462Z,7.60
2017-09-05T14:40:58.197Z,8.18
2017-09-05T14:43:28.227Z,7.32
2017-09-05T14:45:57.683Z,24.87
2017-09-05T14:48:39.420Z,7.90
2017-09-05T14:51:08.965Z,10.88
2017-09-05T14:53:41.070Z,23.85
2017-09-05T14:56:10.587Z,14.80
2017-09-05T14:58:40.613Z,8.00
2017-09-05T15:01:10.074Z,22.58
2017-09-05T15:03:51.777Z,14.70
2017-09-05T15:06:21.987Z,7.10
2017-09-05T15:08:51.490Z,7.75
2017-09-05T15:11:28.385Z,8.63
2017-09-05T15:13:57.885Z,14.80
2017-09-05T15:16:27.396Z,10.60
2017-09-05T15:18:57.056Z,6.07
2017-09-05T15:21:26.826Z,12.43
2017-09-05T15:24:11.010Z,7.22
2017-09-05T15:26:40.710Z,6.07
2017-09-05T15:29:23.444Z,12.68
2017-09-05T15:31:53.120Z,7.47
2017-09-05T15:34:22.789Z,6.07
2017-09-05T15:36:52.594Z,4.43
2017-09-05T15:39:22.199Z,8.30
2017-09-05T15:41:51.681Z,5.10
2017-09-05T15:44:40.016Z,7.70
2017-09-05T15:47:09.561Z,6.00
2017-09-05T15:49:38.997Z,5.60
2017-09-05T15:52:16.272Z,6.78
2017-09-05T15:54:45.754Z,11.18
2017-09-05T15:57:21.425Z,5.28
2017-09-05T15:59:50.934Z,6.85
2017-09-05T16:02:35.938Z,12.98
2017-09-05T16:05:05.617Z,11.68
2017-09-05T16:07:35.178Z,4.78
2017-09-05T16:10:04.581Z,3.87
2017-09-05T16:12:41.358Z,4.25
2017-09-05T16:15:12.096Z,9.23
2017-09-05T16:17:41.762Z,5.22
2017-09-05T16:20:18.830Z,14.05
2017-09-05T16:22:48.362Z,6.97
2017-09-05T16:25:32.324Z,5.40
2017-09-05T16:28:08.306Z,5.37
2017-09-05T16:30:37.780Z,9.18
2017-09-05T16:33:07.215Z,5.40
2017-09-05T16:35:37.970Z,4.85
2017-09-05T16:38:07.739Z,5.62
2017-09-05T16:40:37.811Z,14.63
2017-09-05T16:43:11.432Z,10.18
2017-09-05T16:45:41.484Z,8.55
2017-09-05T16:48:11.194Z,7.47
2017-09-05T16:50:41.007Z,10.75
2017-09-05T16:53:11.509Z,8.68
2017-09-05T16:55:41.610Z,12.43
2017-09-05T16:58:11.351Z,7.00
2017-09-05T17:00:41.375Z,9.53
2017-09-05T17:03:10.903Z,7.03
2017-09-05T17:05:40.479Z,12.83
2017-09-05T17:08:09.919Z,8.30
2017-09-05T17:10:39.509Z,10.67
2017-09-05T17:13:15.051Z,7.17
2017-09-05T17:15:44.838Z,14.50
2017-09-05T17:18:14.754Z,11.50
2017-09-05T17:20:44.252Z,9.93
2017-09-05T17:23:15.623Z,14.27
2017-09-05T17:25:45.132Z,9.50
2017-09-05T17:28:14.662Z,13.10
2017-09-05T17:30:44.381Z,10.60
2017-09-05T17:33:13.959Z,13.07
2017-09-05T17:35:49.745Z,11.50
2017-09-05T17:38:19.323Z,12.83
2017-09-05T17:40:48.794Z,15.90
2017-09-05T17:43:18.408Z,18.33
2017-09-05T17:46:04.438Z,22.03
2017-09-05T17:48:33.947Z,26.30
2017-09-05T17:51:03.508Z,12.50
2017-09-05T17:53:32.957Z,22.50
2017-09-05T17:56:02.348Z,22.20
2017-09-05T17:58:31.797Z,8.93
2017-09-05T18:01:15.524Z,11.63
2017-09-05T18:03:58.207Z,9.27
2017-09-05T18:06:27.816Z,15.77
2017-09-05T18:08:57.280Z,11.37
2017-09-05T18:11:26.665Z,10.30
2017-09-05T18:13:56.165Z,13.10
2017-09-05T18:16:25.808Z,16.53
2017-09-05T18:18:55.244Z,17.30
2017-09-05T18:21:38.438Z,13.43
2017-09-05T18:24:08.034Z,11.50
2017-09-05T18:26:47.226Z,16.27
2017-09-05T18:29:16.707Z,11.90
2017-09-05T18:31:53.317Z,11.37
2017-09-05T18:34:28.845Z,12.50
2017-09-05T18:36:58.808Z,14.37
2017-09-05T18:39:28.207Z,10.07
2017-09-05T18:41:57.680Z,10.73
2017-09-05T18:44:27.377Z,14.90
2017-09-05T18:47:09.915Z,13.37
2017-09-05T18:49:39.348Z,11.60
2017-09-05T18:52:08.858Z,19.17
2017-09-05T18:54:38.273Z,13.37
2017-09-05T18:57:08.005Z,14.13
2017-09-05T18:59:37.439Z,14.20
2017-09-05T19:02:06.992Z,16.73
2017-09-05T19:04:36.412Z,25.90
2017-09-05T19:07:13.450Z,14.30
2017-09-05T19:09:42.892Z,14.57
2017-09-05T19:12:12.372Z,17.17
2017-09-05T19:14:41.813Z,21.80
2017-09-05T19:17:11.261Z,15.83
2017-09-05T19:19:47.015Z,18.17
2017-09-05T19:22:16.487Z,13.83
2017-09-05T19:24:45.923Z,13.20
2017-09-05T19:27:15.348Z,23.67
2017-09-05T19:29:44.836Z,9.93
2017-09-05T19:32:15.193Z,14.70
2017-09-05T19:34:44.985Z,19.07
2017-09-05T19:37:14.489Z,20.97
2017-09-05T19:39:56.104Z,11.47
2017-09-05T19:42:25.713Z,12.13
2017-09-05T19:44:55.408Z,16.20
2017-09-05T19:47:25.087Z,9.60
2017-09-05T19:49:54.615Z,20.33
2017-09-05T19:52:24.085Z,12.97
2017-09-05T19:55:06.886Z,18.80
2017-09-05T19:57:36.376Z,16.17
2017-09-05T20:00:05.863Z,19.60
2017-09-05T20:02:35.568Z,12.33
2017-09-05T20:05:12.809Z,8.40
2017-09-05T20:07:42.397Z,10.10
2017-09-05T20:10:12.156Z,21.73
2017-09-05T20:12:42.154Z,12.17
2017-09-05T20:15:11.759Z,9.70
2017-09-05T20:17:41.303Z,8.53
2017-09-05T20:20:12.528Z,12.83
2017-09-05T20:22:42.201Z,10.17
2017-09-05T20:25:17.755Z,9.67
2017-09-05T20:27:47.218Z,13.80
2017-09-05T20:30:24.586Z,14.40
2017-09-05T20:32:54.204Z,15.57
2017-09-05T20:35:24.780Z,16.00
2017-09-05T20:38:07.251Z,15.17
2017-09-05T20:40:36.841Z,12.40
2017-09-05T20:43:14.369Z,12.73
2017-09-05T20:45:44.392Z,17.40
2017-09-05T20:48:14.326Z,18.57
2017-09-05T20:50:43.842Z,16.60
2017-09-05T20:53:19.632Z,10.70
2017-09-05T20:55:49.471Z,11.37
2017-09-05T20:58:26.337Z,21.57
2017-09-05T21:00:55.823Z,15.53
2017-09-05T21:03:25.347Z,13.43
2017-09-05T21:05:54.866Z,11.40
2017-09-05T21:08:36.458Z,15.70
2017-09-05T21:11:06.023Z,13.40
2017-09-05T21:13:43.293Z,14.27
2017-09-05T21:16:12.934Z,14.60
2017-09-05T21:18:55.575Z,16.40
2017-09-05T21:21:26.597Z,15.67
2017-09-05T21:23:56.092Z,13.03
2017-09-05T21:26:25.589Z,11.57
2017-09-05T21:29:08.804Z,12.00
2017-09-05T21:31:44.513Z,19.40
2017-09-05T21:34:13.998Z,16.53
2017-09-05T21:36:43.915Z,13.50
2017-09-05T21:39:26.706Z,15.87
2017-09-05T21:41:56.152Z,26.07
2017-09-05T21:44:31.728Z,23.13
2017-09-05T21:47:09.053Z,14.13
2017-09-05T21:49:38.890Z,19.67
2017-09-05T21:52:14.738Z,11.00
2017-09-05T21:54:57.323Z,15.40
2017-09-05T21:57:26.856Z,10.50
2017-09-05T21:59:56.323Z,22.00
2017-09-05T22:02:25.921Z,16.20
2017-09-05T22:04:55.568Z,15.73
2017-09-05T22:07:24.972Z,10.70
2017-09-05T22:09:54.491Z,11.53
2017-09-05T22:12:23.931Z,11.33
2017-09-05T22:14:59.020Z,15.77
2017-09-05T22:17:28.489Z,15.63
2017-09-05T22:20:10.254Z,17.40
2017-09-05T22:22:45.959Z,11.60
2017-09-05T22:25:21.389Z,14.03
2017-09-05T22:28:04.044Z,10.70
2017-09-05T22:30:33.505Z,12.53
2017-09-05T22:33:10.912Z,17.63
2017-09-05T22:35:40.366Z,21.97
2017-09-05T22:38:22.872Z,21.70
2017-09-05T22:40:55.430Z,8.70
2017-09-05T22:43:31.043Z,13.00
2017-09-05T22:46:00.463Z,14.20
2017-09-05T22:48:29.865Z,25.40
2017-09-05T22:50:59.275Z,16.20
2017-09-05T22:53:29.434Z,14.43
2017-09-05T22:56:05.168Z,22.20
2017-09-05T22:58:35.296Z,17.47
2017-09-05T23:01:04.732Z,18.00
2017-09-05T23:03:34.132Z,22.67
2017-09-05T23:06:03.802Z,12.90
2017-09-05T23:08:33.244Z,16.83
2017-09-05T23:11:02.586Z,14.70
2017-09-05T23:13:32.039Z,15.60
2017-09-05T23:16:01.528Z,17.23
2017-09-05T23:18:30.984Z,21.57
2017-09-05T23:21:00.414Z,12.37
2017-09-05T23:23:29.839Z,19.20
2017-09-05T23:26:00.270Z,21.70
2017-09-05T23:28:29.701Z,24.40
2017-09-05T23:30:59.089Z,12.83
2017-09-05T23:33:28.485Z,16.10
2017-09-05T23:35:59.240Z,15.57
2017-09-05T23:38:28.710Z,26.57
2017-09-05T23:40:58.255Z,23.80
2017-09-05T23:43:27.660Z,17.33
2017-09-05T23:45:58.238Z,16.50
2017-09-05T23:48:29.297Z,21.53
2017-09-05T23:50:58.750Z,17.73
2017-09-05T23:53:28.164Z,20.97
2017-09-05T23:55:57.615Z,15.33
2017-09-05T23:58:29.987Z,32.97
